LIRP/PSA METAR and TAF weather

Enter ICAO airport designator
Station Type Date Time Source
LIRP METAR 2022/11/30 17:45 UTC NOAA

LIRP 301745Z 12009KT CAVOK 07/03 Q1014 NOSIG


Station Type Date Time Source
LIRP Decoded METAR 2022/11/30 17:45 UTC NOAA

Pisa / S. Giusto, Italy (LIRP) 43-41N 010-23E 6M
Nov 30, 2022 - 12:45 PM EST / 2022.11.30 1745 UTC
Wind: from the ESE (120 degrees) at 10 MPH (9 KT):0
Visibility: greater than 7 mile(s):0
Temperature: 44 F (7 C)
Dew Point: 37 F (3 C)
Relative Humidity: 75%
Pressure (altimeter): 29.94 in. Hg (1014 hPa)
ob: LIRP 301745Z 12009KT CAVOK 07/03 Q1014 NOSIG
cycle: 18

Station Type Date Time Source
LIRP TAF 2022/11/30 18:21 UTC NOAA

TAF LIRP 301700Z 3018/0118 12010KT 9999 SCT060
BECMG 0100/0102 5000 BR SCT020 SCT050

Example: see airport list